• Join FlightAware (Why Join?)
  • Login
  • US Flag 
11:59PM EST


 

Airport Tracker/Info


-or-


 

Live Flight TrackerFlight Track Log ✈ N5312S ✈ 30-Apr-2013 ✈ KBDL - KISP

Flight Track Log - Related Links

Times and Time Zones

All times are in EDT time to prevent confusion due to time zone crossing. See the N5312S flight status page for this flight to view local times or setup timezone preferences in your user account.

Time Position Orientation Groundspeed Altitude Reporting Facility
EDT Latitude Longitude Course Direction KTS MPH feet Rate Location/Type
01:48PM 42.1522 -72.6333 194° South 115 132 4,400  Level Boston Center
01:49PM 42.1189 -72.6444 194° South 112 129 4,400  Level Boston Center
01:50PM 42.0917 -72.6556 197° South 107 123 4,500  Climbing Boston Center
01:51PM 42.0647 -72.6639 193° South 102 117 4,400 -120 Descending Boston Center
01:51PM 42.0458 -72.6694 192° South 105 121 4,400  Level Boston Center
01:53PM 42.0064 -72.6803 192° South 107 123 4,400  Level Boston Center
01:54PM 41.9792 -72.6914 197° South 112 129 4,400  Level Boston Center
01:55PM 41.9561 -72.6969 190° South 108 124 4,500  Climbing Boston Center
01:56PM 41.9228 -72.7108 197° South 112 129 4,500  Level Boston Center
01:57PM 41.8936 -72.7189 192° South 107 123 4,600 360 Climbing Boston Center
01:58PM 41.8728 -72.7272 197° South 95 109 5,200 600 Climbing Boston Center
01:59PM 41.8456 -72.7383 197° South 91 105 5,800 540 Climbing Boston Center
02:00PM 41.8206 -72.7464 194° South 93 107 6,400 240 Climbing Boston Center
02:01PM 41.7894 -72.7547 191° South 111 128 6,400  Level Boston Center
02:02PM 41.7558 -72.7683 197° South 123 142 6,400  Level Boston Center
02:03PM 41.7183 -72.7850 198° South 123 142 6,400  Level Boston Center
02:04PM 41.6869 -72.7958 194° South 125 144 6,400  Level Boston Center
02:05PM 41.6517 -72.8097 196° South 124 143 6,400  Level Boston Center
02:06PM 41.6203 -72.8178 191° South 123 142 6,400  Level Boston Center
02:07PM 41.5869 -72.8286 194° South 124 143 6,400  Level Boston Center
02:09PM 41.5167 -72.8500 193° South 123 142 6,500  Climbing New York TRACON
02:10PM 41.4833 -72.8667 201° Southwest 120 138 6,500  Level New York TRACON
02:11PM 41.4500 -72.8667 180° South 123 142 6,500  Level New York TRACON
02:12PM 41.4167 -72.8833 201° Southwest 120 138 6,500 -60 Level New York TRACON
02:13PM 41.3833 -72.8833 180° South 122 140 6,400  Descending New York TRACON
02:14PM 41.3500 -72.9000 201° Southwest 122 140 6,500  Climbing New York TRACON
02:15PM 41.3167 -72.9167 201° Southwest 120 138 6,500  Level New York TRACON
02:16PM 41.2833 -72.9167 180° South 121 139 6,500  Level New York TRACON
02:17PM 41.2500 -72.9333 201° Southwest 124 143 6,500 -120 Level New York TRACON
02:18PM 41.2167 -72.9500 201° Southwest 127 146 6,300 -180 Descending New York TRACON
02:19PM 41.1833 -72.9667 201° Southwest 129 148 6,200 -240 Descending New York TRACON
02:20PM 41.1500 -72.9833 201° Southwest 125 144 5,900 -300 Descending New York TRACON
02:21PM 41.1167 -73.0000 201° Southwest 124 143 5,600 -360 Descending New York TRACON
02:22PM 41.0833 -73.0167 201° Southwest 122 140 5,200 -360 Descending New York TRACON
02:23PM 41.0500 -73.0333 201° Southwest 117 135 4,900 -360 Descending New York TRACON
02:24PM 41.0333 -73.0333 180° South 119 137 4,500 -300 Descending New York TRACON
02:25PM 41.0000 -73.0500 201° Southwest 108 124 4,300 -300 Descending New York TRACON
02:26PM 40.9667 -73.0500 180° South 113 130 4,000 -300 Descending New York TRACON
02:27PM 40.9333 -73.0667 201° Southwest 120 138 3,800 -300 Descending New York TRACON
02:28PM 40.9000 -73.0833 201° Southwest 116 133 3,500 -480 Descending New York TRACON
02:29PM 40.8667 -73.1000 201° Southwest 117 135 2,900 -840 Descending New York TRACON
02:30PM 40.8500 -73.1167 217° Southwest 117 135 1,900 -900 Descending New York TRACON
02:31PM 40.8333 -73.1333 217° Southwest 83 96 1,200 -720 Descending New York TRACON
02:32PM 40.8167 -73.1167 143° Southeast 59 68 500 -720 Descending New York TRACON
02:34PM 40.7952 -73.1002 197° South  Level Estimated
02:41PM 40.7952 -73.1002 197° South  Level Estimated
02:42PM 40.7952 -73.1002 197° South  Level Estimated